Time;durP1;ratioP1;P1;durP2;ratioP2;P2;SDS_P1;SDS_P2;PMS_P1;PMS_P2;Temp;Humidity;BMP_temperature;BMP_pressure;BME280_temperature;BME280_humidity;BME280_pressure;Samples;Min_cycle;Max_cycle;Signal;HPM_P1;HPM_P2
2023/12/31 00:00:45;;;;;;;25.67;15.63;;;4.40;99.90;;;;;;2074906;28;20029;-76
2023/12/31 00:01:45;;;;;;;26.00;15.20;;;4.40;99.90;;;;;;2071769;28;20025;-77
2023/12/31 00:02:46;;;;;;;24.23;15.07;;;4.40;99.90;;;;;;2075656;28;20113;-76
2023/12/31 00:03:47;;;;;;;26.85;15.73;;;4.40;99.90;;;;;;2072057;28;20030;-76
2023/12/31 00:04:47;;;;;;;28.42;16.23;;;4.30;99.90;;;;;;2075160;28;20094;-76
2023/12/31 00:05:48;;;;;;;28.77;17.42;;;4.30;99.90;;;;;;2079021;28;20029;-76
2023/12/31 00:06:48;;;;;;;27.23;16.17;;;4.30;99.90;;;;;;2074434;28;20025;-74
2023/12/31 00:07:49;;;;;;;27.60;16.48;;;4.30;99.90;;;;;;2074766;28;20030;-76
2023/12/31 00:08:50;;;;;;;27.10;16.58;;;4.30;99.90;;;;;;2085637;28;20079;-76
2023/12/31 00:09:50;;;;;;;29.60;17.42;;;4.30;99.90;;;;;;2074865;28;20458;-76
2023/12/31 00:10:51;;;;;;;28.88;16.80;;;4.30;99.90;;;;;;2071871;28;20704;-76
2023/12/31 00:11:52;;;;;;;25.83;16.60;;;4.30;99.90;;;;;;2079735;28;20102;-75
2023/12/31 00:12:52;;;;;;;29.73;16.15;;;4.30;99.90;;;;;;2079568;28;20045;-76
2023/12/31 00:13:53;;;;;;;30.38;16.25;;;4.20;99.90;;;;;;2075324;28;20406;-76
2023/12/31 00:14:53;;;;;;;26.48;15.90;;;4.20;99.90;;;;;;2072591;28;20038;-76
2023/12/31 00:15:54;;;;;;;24.05;14.85;;;4.20;99.90;;;;;;2063167;28;20054;-76
2023/12/31 00:16:54;;;;;;;23.45;15.15;;;4.20;99.90;;;;;;2075925;28;20635;-79
2023/12/31 00:17:55;;;;;;;24.90;15.35;;;4.20;99.90;;;;;;2071405;28;20421;-76
2023/12/31 00:18:56;;;;;;;25.50;14.93;;;4.30;99.90;;;;;;2076445;28;20088;-76
2023/12/31 00:19:56;;;;;;;23.48;14.88;;;4.20;99.90;;;;;;2076406;28;20033;-77
2023/12/31 00:20:57;;;;;;;25.63;14.35;;;4.20;99.90;;;;;;2077169;28;20052;-76
2023/12/31 00:21:58;;;;;;;27.50;14.40;;;4.20;99.90;;;;;;2070943;28;20030;-76
2023/12/31 00:22:58;;;;;;;26.38;15.55;;;4.20;99.90;;;;;;2060025;28;20054;-77
2023/12/31 00:23:59;;;;;;;27.05;15.65;;;4.30;99.90;;;;;;2065404;28;20017;-77
2023/12/31 00:24:59;;;;;;;27.33;15.88;;;4.30;99.90;;;;;;2076444;28;20384;-76
2023/12/31 00:26:00;;;;;;;35.25;20.25;;;4.30;99.90;;;;;;2087736;28;20661;-76
2023/12/31 00:27:00;;;;;;;33.22;18.20;;;4.30;99.90;;;;;;2073922;28;20018;-75
2023/12/31 00:28:01;;;;;;;34.92;18.83;;;4.30;99.90;;;;;;2062263;28;20056;-75
2023/12/31 00:29:01;;;;;;;32.97;18.90;;;4.30;99.90;;;;;;2065074;28;20030;-74
2023/12/31 00:30:02;;;;;;;33.33;18.48;;;4.30;99.90;;;;;;2079681;28;20041;-76
2023/12/31 00:31:03;;;;;;;37.38;20.27;;;4.30;99.90;;;;;;2076886;28;20013;-75
2023/12/31 00:32:04;;;;;;;36.63;20.35;;;4.30;99.90;;;;;;2075884;28;20044;-75
2023/12/31 00:33:05;;;;;;;24.45;14.95;;;4.30;99.90;;;;;;2075697;28;20029;-74
2023/12/31 00:34:05;;;;;;;24.67;13.20;;;4.20;99.90;;;;;;2073575;28;20103;-74
2023/12/31 00:35:06;;;;;;;22.08;12.43;;;4.20;99.90;;;;;;2077679;28;20167;-74
2023/12/31 00:36:07;;;;;;;21.10;11.93;;;4.30;99.90;;;;;;2077864;28;20021;-73
2023/12/31 00:37:07;;;;;;;21.00;11.82;;;4.30;99.90;;;;;;2072963;28;20025;-74
2023/12/31 00:38:08;;;;;;;20.50;10.77;;;4.30;99.90;;;;;;2076449;28;20176;-73
2023/12/31 00:39:08;;;;;;;17.55;11.25;;;4.30;99.90;;;;;;2073639;28;20443;-75
2023/12/31 00:40:09;;;;;;;18.40;11.27;;;4.30;99.90;;;;;;2074658;28;20512;-74
2023/12/31 00:41:09;;;;;;;22.40;11.57;;;4.20;99.90;;;;;;2067094;28;20106;-76
2023/12/31 00:42:10;;;;;;;19.92;10.73;;;4.20;99.90;;;;;;2076980;28;20476;-76
2023/12/31 00:43:11;;;;;;;19.80;10.15;;;4.20;99.90;;;;;;2081338;28;20032;-76
2023/12/31 00:44:11;;;;;;;19.10;9.75;;;4.20;99.90;;;;;;2079985;28;20009;-76
2023/12/31 00:45:12;;;;;;;17.88;9.77;;;4.20;99.90;;;;;;2076179;28;20155;-76
2023/12/31 00:46:13;;;;;;;20.15;10.35;;;4.20;99.90;;;;;;2076156;28;20559;-75
2023/12/31 00:47:14;;;;;;;20.30;11.05;;;4.20;99.90;;;;;;2075194;28;20021;-74
2023/12/31 00:48:14;;;;;;;16.98;10.77;;;4.20;99.90;;;;;;2075750;28;20095;-75
2023/12/31 00:49:15;;;;;;;20.67;11.05;;;4.30;99.90;;;;;;2069806;28;20033;-75
2023/12/31 00:50:18;;;;;;;19.67;10.95;;;4.30;99.90;;;;;;2079835;28;20032;-75
2023/12/31 00:51:18;;;;;;;21.23;11.35;;;4.30;99.90;;;;;;2070598;28;20709;-75
2023/12/31 00:52:19;;;;;;;19.17;10.82;;;4.20;99.90;;;;;;2076242;28;20030;-75
2023/12/31 00:53:19;;;;;;;18.98;10.85;;;4.30;99.90;;;;;;2079951;28;20033;-76
2023/12/31 00:54:20;;;;;;;23.15;10.95;;;4.20;99.90;;;;;;2079658;28;20031;-76
2023/12/31 00:55:20;;;;;;;21.02;12.13;;;4.30;99.90;;;;;;2085514;28;20033;-77
2023/12/31 00:56:21;;;;;;;19.48;12.25;;;4.20;99.90;;;;;;2085315;28;20657;-75
2023/12/31 00:57:22;;;;;;;24.33;13.13;;;4.20;99.90;;;;;;2071686;28;20110;-74
2023/12/31 00:58:22;;;;;;;24.05;12.48;;;4.20;99.90;;;;;;2076044;28;20033;-76
2023/12/31 00:59:23;;;;;;;22.98;12.80;;;4.20;99.90;;;;;;2073763;28;20030;-76
2023/12/31 01:00:24;;;;;;;25.13;12.68;;;4.20;99.90;;;;;;2073876;28;20021;-76
2023/12/31 01:01:25;;;;;;;20.98;12.45;;;4.30;99.90;;;;;;2067821;28;20065;-77
2023/12/31 01:02:27;;;;;;;21.77;12.25;;;4.20;99.90;;;;;;2064086;28;20038;-77
2023/12/31 01:03:27;;;;;;;22.83;12.80;;;4.30;99.90;;;;;;2075490;28;20064;-75
2023/12/31 01:04:28;;;;;;;22.52;12.80;;;4.30;99.90;;;;;;2076041;28;20204;-75
2023/12/31 01:05:30;;;;;;;24.10;12.75;;;4.20;99.90;;;;;;2076917;28;20013;-75
2023/12/31 01:06:30;;;;;;;21.73;12.80;;;4.20;99.90;;;;;;2067599;28;20479;-76
2023/12/31 01:07:31;;;;;;;21.23;11.95;;;4.20;99.90;;;;;;2056992;28;20025;-77
2023/12/31 01:08:31;;;;;;;20.00;11.15;;;4.20;99.90;;;;;;2059388;28;20101;-76
2023/12/31 01:09:33;;;;;;;21.42;11.45;;;4.20;99.90;;;;;;2067217;28;20442;-76
2023/12/31 01:10:34;;;;;;;19.77;11.05;;;4.20;99.90;;;;;;2065995;28;20080;-75
2023/12/31 01:11:34;;;;;;;18.33;10.63;;;4.20;99.90;;;;;;2070599;28;20095;-76
2023/12/31 01:12:35;;;;;;;18.63;10.80;;;4.20;99.90;;;;;;2073291;28;20022;-76
2023/12/31 01:13:35;;;;;;;17.50;9.85;;;4.20;99.90;;;;;;2065411;28;20048;-76
2023/12/31 01:14:37;;;;;;;17.63;9.85;;;4.20;99.90;;;;;;2066726;28;20029;-76
2023/12/31 01:15:38;;;;;;;17.73;9.65;;;4.20;99.90;;;;;;2073609;28;20017;-77
2023/12/31 01:16:39;;;;;;;18.10;9.57;;;4.20;99.90;;;;;;2072377;28;20026;-75
2023/12/31 01:17:42;;;;;;;16.48;9.45;;;4.20;99.90;;;;;;2067964;28;20032;-75
2023/12/31 01:18:43;;;;;;;18.15;9.45;;;4.20;99.90;;;;;;2074952;28;20029;-76
2023/12/31 01:19:43;;;;;;;15.65;8.80;;;4.20;99.90;;;;;;2075963;28;20029;-76
2023/12/31 01:20:44;;;;;;;19.25;9.38;;;4.20;99.90;;;;;;2074612;28;20032;-75
2023/12/31 01:21:44;;;;;;;14.95;8.93;;;4.20;99.90;;;;;;2075569;28;20022;-76
2023/12/31 01:22:45;;;;;;;17.52;9.40;;;4.20;99.90;;;;;;2076283;28;20102;-75
2023/12/31 01:23:45;;;;;;;17.40;8.90;;;4.20;99.90;;;;;;2076463;28;20594;-75
2023/12/31 01:24:46;;;;;;;16.15;8.63;;;4.20;99.90;;;;;;2064915;28;20037;-76
2023/12/31 01:25:47;;;;;;;14.13;8.25;;;4.20;99.90;;;;;;2065294;28;20042;-76
2023/12/31 01:26:47;;;;;;;15.55;8.73;;;4.20;99.90;;;;;;2066538;28;20030;-75
2023/12/31 01:27:48;;;;;;;18.20;9.00;;;4.20;99.90;;;;;;2056775;28;20022;-75
2023/12/31 01:28:49;;;;;;;16.10;8.45;;;4.20;99.90;;;;;;2073565;28;20033;-76
2023/12/31 01:29:49;;;;;;;16.70;8.38;;;4.20;99.90;;;;;;2065895;28;20026;-77
2023/12/31 01:30:50;;;;;;;14.57;8.13;;;4.20;99.90;;;;;;2059220;28;20030;-77
2023/12/31 01:31:50;;;;;;;14.10;8.23;;;4.20;99.90;;;;;;2055614;28;20073;-77
2023/12/31 01:32:51;;;;;;;16.25;8.32;;;4.20;99.90;;;;;;2067468;28;20029;-77
2023/12/31 01:33:51;;;;;;;14.75;7.93;;;4.20;99.90;;;;;;2067419;28;20022;-78
2023/12/31 01:34:56;;;;;;;14.95;8.38;;;4.20;99.90;;;;;;2069837;28;20101;-77
2023/12/31 01:35:56;;;;;;;14.32;8.23;;;4.20;99.90;;;;;;2066006;28;20104;-75
2023/12/31 01:36:57;;;;;;;17.10;8.50;;;4.30;99.90;;;;;;2074447;28;20470;-78
2023/12/31 01:37:58;;;;;;;14.60;8.30;;;4.20;99.90;;;;;;2077591;28;20102;-78
2023/12/31 01:38:58;;;;;;;12.95;8.23;;;4.20;99.90;;;;;;2068040;28;20279;-77
2023/12/31 01:39:59;;;;;;;15.30;8.18;;;4.20;99.90;;;;;;2074776;28;20017;-75
2023/12/31 01:41:01;;;;;;;15.32;8.50;;;4.10;99.90;;;;;;2075417;28;20487;-76
2023/12/31 01:42:02;;;;;;;12.95;7.80;;;4.10;99.90;;;;;;2076829;28;20107;-77
2023/12/31 01:43:03;;;;;;;13.88;8.13;;;4.10;99.90;;;;;;2072474;28;20279;-75
2023/12/31 01:44:06;;;;;;;16.67;8.40;;;4.10;99.90;;;;;;2075177;28;20077;-74
2023/12/31 01:45:07;;;;;;;12.77;8.10;;;4.10;99.90;;;;;;2080997;28;20034;-73
2023/12/31 01:46:10;;;;;;;14.70;8.00;;;4.20;99.90;;;;;;2072296;28;20048;-74
2023/12/31 01:47:12;;;;;;;12.68;7.78;;;4.20;99.90;;;;;;2072517;28;20022;-74
2023/12/31 01:48:14;;;;;;;15.15;7.60;;;4.20;99.90;;;;;;2071735;28;20444;-73
2023/12/31 01:49:15;;;;;;;13.60;8.05;;;4.10;99.90;;;;;;2072027;28;20034;-74
2023/12/31 01:50:16;;;;;;;15.48;8.07;;;4.10;99.90;;;;;;2072324;28;20482;-73
2023/12/31 01:51:17;;;;;;;13.73;8.10;;;4.10;99.90;;;;;;2082503;28;20068;-73
2023/12/31 01:52:18;;;;;;;13.13;7.65;;;4.10;99.90;;;;;;2073541;28;20052;-73
2023/12/31 01:53:19;;;;;;;14.88;7.90;;;4.10;99.90;;;;;;2073954;28;20163;-72
2023/12/31 01:54:20;;;;;;;15.25;8.02;;;4.10;99.90;;;;;;2075677;28;20044;-74
2023/12/31 01:55:21;;;;;;;12.75;7.60;;;4.10;99.90;;;;;;2075494;28;20018;-73
2023/12/31 01:56:23;;;;;;;17.45;8.38;;;4.10;99.90;;;;;;2061622;28;20042;-72
2023/12/31 01:57:29;;;;;;;14.23;8.00;;;4.10;99.90;;;;;;2063515;28;20026;-73
2023/12/31 01:58:30;;;;;;;12.93;7.85;;;4.10;99.90;;;;;;2065691;28;20116;-73
2023/12/31 01:59:31;;;;;;;14.77;7.95;;;4.20;99.90;;;;;;2065721;28;20121;-73
2023/12/31 02:00:31;;;;;;;14.32;7.75;;;4.20;99.90;;;;;;2063608;28;20030;-74
2023/12/31 02:01:35;;;;;;;16.60;8.00;;;4.20;99.90;;;;;;2065418;28;20046;-74
2023/12/31 02:02:36;;;;;;;13.50;7.53;;;4.20;99.90;;;;;;2078159;28;20013;-73
2023/12/31 02:03:37;;;;;;;14.20;7.40;;;4.20;99.90;;;;;;2074577;28;20080;-73
2023/12/31 02:04:38;;;;;;;16.67;7.75;;;4.20;99.90;;;;;;2075550;28;20029;-72
2023/12/31 02:05:40;;;;;;;14.75;8.07;;;4.10;99.90;;;;;;2075282;28;20037;-73
2023/12/31 02:06:41;;;;;;;14.57;7.60;;;4.10;99.90;;;;;;2085442;28;20064;-73
2023/12/31 02:07:42;;;;;;;15.05;7.57;;;4.10;99.90;;;;;;2076145;28;20021;-72
2023/12/31 02:08:42;;;;;;;14.30;7.70;;;4.20;99.90;;;;;;2075265;28;20029;-73
2023/12/31 02:09:44;;;;;;;14.60;7.68;;;4.30;99.90;;;;;;2076502;28;20038;-74
2023/12/31 02:10:45;;;;;;;14.80;7.88;;;4.30;99.90;;;;;;2074225;28;20036;-73
2023/12/31 02:11:46;;;;;;;12.50;7.57;;;4.30;99.90;;;;;;2075346;28;20033;-74
2023/12/31 02:12:49;;;;;;;13.43;7.38;;;4.20;99.90;;;;;;2075299;28;20033;-74
2023/12/31 02:13:50;;;;;;;15.93;8.00;;;4.20;99.90;;;;;;2076982;28;20033;-76
2023/12/31 02:14:50;;;;;;;17.02;8.10;;;4.20;99.90;;;;;;2074041;28;20049;-73
2023/12/31 02:15:53;;;;;;;15.32;7.97;;;4.10;99.90;;;;;;2075898;28;20036;-73
2023/12/31 02:16:56;;;;;;;14.75;7.95;;;4.10;99.90;;;;;;2067034;28;20018;-73
2023/12/31 02:17:59;;;;;;;16.88;8.20;;;4.10;99.90;;;;;;2061072;28;20674;-73
2023/12/31 02:19:00;;;;;;;14.77;7.93;;;4.10;99.90;;;;;;2071796;28;20030;-73
2023/12/31 02:20:01;;;;;;;16.48;7.97;;;4.10;99.90;;;;;;2074928;28;20032;-74
2023/12/31 02:21:02;;;;;;;16.83;8.75;;;4.10;99.90;;;;;;2066551;28;20121;-73
2023/12/31 02:22:03;;;;;;;14.15;8.50;;;4.00;99.90;;;;;;2067078;28;20026;-73
2023/12/31 02:23:05;;;;;;;14.82;8.50;;;4.00;99.90;;;;;;2076086;28;20021;-72
2023/12/31 02:24:07;;;;;;;14.73;8.57;;;4.00;99.90;;;;;;2083435;28;20025;-73
2023/12/31 02:25:12;;;;;;;17.45;8.90;;;4.00;99.90;;;;;;2075168;28;20107;-73
2023/12/31 02:26:13;;;;;;;17.35;8.90;;;4.10;99.90;;;;;;2074097;28;20018;-74
2023/12/31 02:27:15;;;;;;;15.70;8.82;;;4.00;99.90;;;;;;2073674;28;20044;-73
2023/12/31 02:28:15;;;;;;;15.95;8.63;;;4.00;99.90;;;;;;2075958;28;20033;-72
2023/12/31 02:29:16;;;;;;;17.20;8.70;;;4.00;99.90;;;;;;2071621;28;20102;-73
2023/12/31 02:30:18;;;;;;;16.83;8.65;;;4.00;99.90;;;;;;2072540;28;20041;-74
2023/12/31 02:31:19;;;;;;;16.75;9.20;;;4.00;99.90;;;;;;2066572;28;20026;-73
2023/12/31 02:32:19;;;;;;;17.05;9.10;;;4.10;99.90;;;;;;2076463;28;20611;-74
2023/12/31 02:33:20;;;;;;;16.77;9.10;;;4.00;99.90;;;;;;2073607;28;20453;-74
2023/12/31 02:34:21;;;;;;;18.10;9.15;;;4.00;99.90;;;;;;2067001;28;20133;-74
2023/12/31 02:35:22;;;;;;;17.35;8.75;;;4.10;99.90;;;;;;2075800;28;20041;-74
2023/12/31 02:36:23;;;;;;;18.38;8.77;;;4.10;99.90;;;;;;2077943;28;20029;-73
2023/12/31 02:37:24;;;;;;;14.48;8.65;;;4.00;99.90;;;;;;2078940;28;20030;-75
2023/12/31 02:38:25;;;;;;;15.45;9.43;;;4.00;99.90;;;;;;2087498;28;20043;-74
2023/12/31 02:39:26;;;;;;;16.77;8.77;;;4.10;99.90;;;;;;2078847;28;20025;-73
2023/12/31 02:40:26;;;;;;;16.85;9.00;;;4.10;99.90;;;;;;2066123;28;20657;-73
2023/12/31 02:41:27;;;;;;;19.65;8.90;;;4.10;99.90;;;;;;2067881;28;20399;-73
2023/12/31 02:42:29;;;;;;;18.80;9.77;;;4.10;99.90;;;;;;2065577;28;20030;-73
2023/12/31 02:43:30;;;;;;;15.55;8.98;;;4.10;99.90;;;;;;2070768;28;20530;-74
2023/12/31 02:44:31;;;;;;;16.48;9.38;;;4.00;99.90;;;;;;2077376;28;20037;-74
2023/12/31 02:45:31;;;;;;;16.55;9.27;;;4.00;99.90;;;;;;2075443;28;20052;-74
2023/12/31 02:46:33;;;;;;;16.45;9.55;;;4.00;99.90;;;;;;2079444;28;20047;-73
2023/12/31 02:47:33;;;;;;;18.95;9.85;;;4.00;99.90;;;;;;2074407;28;20132;-72
2023/12/31 02:48:35;;;;;;;20.33;10.00;;;4.00;99.90;;;;;;2075068;28;20030;-74
2023/12/31 02:49:35;;;;;;;16.05;9.30;;;4.00;99.90;;;;;;2084740;28;20099;-73
2023/12/31 02:50:36;;;;;;;16.90;9.18;;;4.00;99.90;;;;;;2083267;28;20052;-73
2023/12/31 02:51:37;;;;;;;19.42;9.90;;;4.00;99.90;;;;;;2075048;28;20144;-73
2023/12/31 02:52:38;;;;;;;17.73;9.57;;;4.00;99.90;;;;;;2075103;28;20030;-73
2023/12/31 02:53:38;;;;;;;16.48;9.98;;;4.00;99.90;;;;;;2075370;28;20130;-73
2023/12/31 02:54:39;;;;;;;19.02;10.00;;;4.10;99.90;;;;;;2075929;28;20041;-74
2023/12/31 02:55:40;;;;;;;19.25;9.70;;;4.00;99.90;;;;;;2078739;28;20025;-73
2023/12/31 02:56:41;;;;;;;18.42;10.25;;;4.00;99.90;;;;;;2066846;28;20029;-73
2023/12/31 02:57:41;;;;;;;18.00;10.30;;;4.00;99.90;;;;;;2051961;28;20019;-73
2023/12/31 02:58:42;;;;;;;18.45;10.60;;;4.00;99.90;;;;;;2053899;28;20023;-74
2023/12/31 02:59:43;;;;;;;19.42;9.98;;;4.00;99.90;;;;;;2069804;28;20048;-74
2023/12/31 03:00:43;;;;;;;19.35;10.52;;;4.00;99.90;;;;;;2076530;28;20076;-73
2023/12/31 03:01:44;;;;;;;19.38;10.70;;;4.00;99.90;;;;;;2069865;28;20034;-74
2023/12/31 03:02:44;;;;;;;19.17;9.80;;;4.00;99.90;;;;;;2078997;28;20128;-74
2023/12/31 03:03:45;;;;;;;15.57;9.57;;;4.00;99.90;;;;;;2075159;28;20059;-74
2023/12/31 03:04:46;;;;;;;16.70;9.68;;;4.00;99.90;;;;;;2078422;28;20080;-74
2023/12/31 03:05:47;;;;;;;16.45;10.10;;;4.00;99.90;;;;;;2079907;28;20171;-73
2023/12/31 03:06:51;;;;;;;19.50;9.68;;;4.10;99.90;;;;;;2076933;28;20037;-73
2023/12/31 03:07:51;;;;;;;19.52;10.30;;;4.10;99.90;;;;;;2076086;28;20037;-74
2023/12/31 03:08:52;;;;;;;16.55;9.90;;;4.10;99.90;;;;;;2078413;28;20380;-73
2023/12/31 03:09:53;;;;;;;19.15;9.38;;;4.10;99.90;;;;;;2073827;28;20384;-74
2023/12/31 03:10:53;;;;;;;15.95;9.35;;;4.10;99.90;;;;;;2067265;28;20473;-73
2023/12/31 03:11:54;;;;;;;15.40;8.93;;;4.10;99.90;;;;;;2059909;28;20061;-73
2023/12/31 03:12:56;;;;;;;14.93;9.35;;;4.10;99.90;;;;;;2076379;28;20028;-73
2023/12/31 03:13:56;;;;;;;16.30;9.85;;;4.20;99.90;;;;;;2088520;28;20043;-72
2023/12/31 03:14:57;;;;;;;17.70;9.65;;;4.20;99.90;;;;;;2087489;28;20032;-73
2023/12/31 03:16:04;;;;;;;15.93;9.70;;;4.20;99.90;;;;;;2085699;28;20404;-73
2023/12/31 03:17:04;;;;;;;20.10;9.88;;;4.20;99.90;;;;;;2083328;28;20062;-73
2023/12/31 03:18:05;;;;;;;18.20;9.60;;;4.20;99.90;;;;;;2079794;28;20037;-73
2023/12/31 03:19:06;;;;;;;19.13;9.90;;;4.20;99.90;;;;;;2079564;28;20598;-73
2023/12/31 03:20:07;;;;;;;18.38;10.07;;;4.20;99.90;;;;;;2074697;28;20020;-73
2023/12/31 03:21:16;;;;;;;17.15;9.63;;;4.20;99.90;;;;;;2074939;28;20396;-72
2023/12/31 03:22:16;;;;;;;18.10;9.85;;;4.20;99.90;;;;;;2076951;28;20083;-74
2023/12/31 03:23:17;;;;;;;17.45;9.98;;;4.20;99.90;;;;;;2087244;28;20028;-75
2023/12/31 03:24:22;;;;;;;17.40;10.25;;;4.30;99.90;;;;;;2076552;28;20025;-73
2023/12/31 03:25:22;;;;;;;18.73;9.68;;;4.30;99.90;;;;;;2077671;28;20026;-73
2023/12/31 03:26:23;;;;;;;16.50;9.85;;;4.20;99.90;;;;;;2087255;28;20032;-73
2023/12/31 03:27:24;;;;;;;16.42;9.68;;;4.30;99.90;;;;;;2075865;28;20037;-73
2023/12/31 03:28:24;;;;;;;19.77;9.40;;;4.30;99.90;;;;;;2075223;28;20025;-73
2023/12/31 03:29:26;;;;;;;18.30;9.63;;;4.20;99.90;;;;;;2075075;28;20128;-73
2023/12/31 03:30:27;;;;;;;19.17;10.50;;;4.30;99.90;;;;;;2075628;28;20029;-73
2023/12/31 03:31:28;;;;;;;19.95;9.88;;;4.30;99.90;;;;;;2064425;28;20534;-73
2023/12/31 03:32:29;;;;;;;15.77;9.60;;;4.20;99.90;;;;;;2066020;28;20032;-73
2023/12/31 03:33:30;;;;;;;17.70;10.02;;;4.30;99.90;;;;;;2083443;28;20025;-73
2023/12/31 03:34:31;;;;;;;18.00;9.70;;;4.20;99.90;;;;;;2083464;28;20125;-74
2023/12/31 03:35:32;;;;;;;20.90;10.05;;;4.30;99.90;;;;;;2075361;28;20068;-73
2023/12/31 03:36:34;;;;;;;16.33;10.30;;;4.30;99.90;;;;;;2075988;28;20022;-74
2023/12/31 03:37:35;;;;;;;18.38;9.82;;;4.30;99.90;;;;;;2076571;28;20040;-75
2023/12/31 03:38:35;;;;;;;19.08;9.82;;;4.30;99.90;;;;;;2076335;28;20041;-74
2023/12/31 03:39:37;;;;;;;17.65;10.00;;;4.30;99.90;;;;;;2076960;28;20100;-78
2023/12/31 03:40:37;;;;;;;16.65;9.73;;;4.30;99.90;;;;;;2075718;28;20081;-75
2023/12/31 03:41:38;;;;;;;18.23;9.52;;;4.30;99.90;;;;;;2056649;28;20023;-79
2023/12/31 03:42:39;;;;;;;18.30;10.18;;;4.30;99.90;;;;;;2063690;28;20532;-77
2023/12/31 03:43:39;;;;;;;14.98;9.32;;;4.40;99.90;;;;;;2067981;28;20387;-78
2023/12/31 03:44:40;;;;;;;16.80;10.10;;;4.30;99.90;;;;;;2079440;28;20029;-79
2023/12/31 03:45:41;;;;;;;18.05;10.10;;;4.30;99.90;;;;;;2079226;28;20053;-78
2023/12/31 03:46:42;;;;;;;17.83;9.88;;;4.30;99.90;;;;;;2075523;28;20466;-78
2023/12/31 03:47:43;;;;;;;17.88;9.55;;;4.30;99.90;;;;;;2075467;28;20566;-77
2023/12/31 03:48:43;;;;;;;19.52;9.73;;;4.30;99.90;;;;;;2075838;28;20022;-78
2023/12/31 03:49:44;;;;;;;18.02;9.95;;;4.30;99.90;;;;;;2084506;28;20021;-77
2023/12/31 03:50:44;;;;;;;18.80;9.98;;;4.30;99.90;;;;;;2088043;28;20032;-77
2023/12/31 03:51:45;;;;;;;18.50;10.23;;;4.30;99.90;;;;;;2082942;28;20026;-78
2023/12/31 03:52:45;;;;;;;17.25;9.90;;;4.30;99.90;;;;;;2080771;28;20715;-79
2023/12/31 03:53:46;;;;;;;17.75;9.93;;;4.30;99.90;;;;;;2076869;28;20040;-79
2023/12/31 03:54:47;;;;;;;16.95;9.82;;;4.30;99.90;;;;;;2080508;28;20025;-78
2023/12/31 03:55:48;;;;;;;16.70;9.88;;;4.30;99.90;;;;;;2073056;28;20119;-79
2023/12/31 03:56:49;;;;;;;18.50;10.13;;;4.30;99.90;;;;;;2081143;28;20032;-78
2023/12/31 03:57:50;;;;;;;19.08;10.02;;;4.30;99.90;;;;;;2084986;28;20131;-78
2023/12/31 03:58:51;;;;;;;17.27;9.73;;;4.30;99.90;;;;;;2076554;28;20063;-77
2023/12/31 03:59:51;;;;;;;20.52;10.13;;;4.30;99.90;;;;;;2076633;28;20056;-79
2023/12/31 04:00:52;;;;;;;16.90;10.50;;;4.30;99.90;;;;;;2081593;28;20066;-78
2023/12/31 04:01:56;;;;;;;18.75;10.68;;;4.30;99.90;;;;;;2074802;28;20022;-80
2023/12/31 04:02:57;;;;;;;19.73;10.50;;;4.30;99.90;;;;;;2077064;28;20072;-78
2023/12/31 04:03:58;;;;;;;18.23;10.30;;;4.30;99.90;;;;;;2080568;28;20603;-77
2023/12/31 04:04:59;;;;;;;17.73;10.13;;;4.30;99.90;;;;;;2073188;28;20026;-77
2023/12/31 04:06:00;;;;;;;16.95;10.38;;;4.30;99.90;;;;;;2072824;28;20811;-78
2023/12/31 04:07:00;;;;;;;20.42;10.23;;;4.30;99.90;;;;;;2073874;28;20034;-80
2023/12/31 04:08:01;;;;;;;18.58;10.60;;;4.30;99.90;;;;;;2073826;28;20026;-78
2023/12/31 04:09:02;;;;;;;18.08;10.23;;;4.30;99.90;;;;;;2076431;28;20048;-78
2023/12/31 04:10:03;;;;;;;20.00;10.57;;;4.30;99.90;;;;;;2079162;28;20013;-77
2023/12/31 04:11:05;;;;;;;19.42;10.50;;;4.30;99.90;;;;;;2076781;28;20401;-78
2023/12/31 04:12:06;;;;;;;19.38;10.18;;;4.30;99.90;;;;;;2079926;28;20125;-78
2023/12/31 04:13:06;;;;;;;17.98;10.32;;;4.30;99.90;;;;;;2078948;28;20042;-78
2023/12/31 04:14:07;;;;;;;18.65;10.40;;;4.30;99.90;;;;;;2079013;28;20638;-77
2023/12/31 04:15:08;;;;;;;18.92;10.40;;;4.30;99.90;;;;;;2080088;28;20233;-77
2023/12/31 04:16:09;;;;;;;17.50;9.93;;;4.30;99.90;;;;;;2078930;28;20853;-79
2023/12/31 04:17:09;;;;;;;15.75;10.02;;;4.30;99.90;;;;;;2081395;28;20107;-79
2023/12/31 04:18:10;;;;;;;21.25;11.38;;;4.30;99.90;;;;;;2077220;28;20029;-77
2023/12/31 04:19:14;;;;;;;18.38;10.55;;;4.30;99.90;;;;;;2074030;28;20097;-79
2023/12/31 04:20:14;;;;;;;17.08;10.60;;;4.30;99.90;;;;;;2081561;28;20480;-77
2023/12/31 04:21:15;;;;;;;20.70;10.45;;;4.30;99.90;;;;;;2080657;28;20116;-78
2023/12/31 04:22:16;;;;;;;19.98;10.40;;;4.30;99.90;;;;;;2077702;28;20029;-79
2023/12/31 04:23:16;;;;;;;20.13;10.20;;;4.30;99.90;;;;;;2069056;28;20030;-78
2023/12/31 04:24:17;;;;;;;19.90;10.13;;;4.40;99.90;;;;;;2072051;28;20017;-77
2023/12/31 04:25:18;;;;;;;16.83;10.25;;;4.30;99.90;;;;;;2072914;28;20037;-77
2023/12/31 04:26:19;;;;;;;17.10;10.55;;;4.40;99.90;;;;;;2077153;28;20026;-77
2023/12/31 04:27:20;;;;;;;18.30;10.50;;;4.30;99.90;;;;;;2077629;28;20039;-80
2023/12/31 04:28:21;;;;;;;18.00;10.80;;;4.30;99.90;;;;;;2083620;28;20028;-78
2023/12/31 04:29:21;;;;;;;18.02;10.60;;;4.30;99.90;;;;;;2081397;28;20499;-79
2023/12/31 04:30:22;;;;;;;19.85;10.77;;;4.30;99.90;;;;;;2075458;28;20037;-77
2023/12/31 04:31:26;;;;;;;19.83;11.07;;;4.30;99.90;;;;;;2060824;28;20029;-77
2023/12/31 04:32:26;;;;;;;22.25;11.52;;;4.30;99.90;;;;;;2064443;28;20497;-77
2023/12/31 04:33:27;;;;;;;20.83;11.02;;;4.30;99.90;;;;;;2080696;28;20052;-77
2023/12/31 04:34:28;;;;;;;19.17;10.82;;;4.30;99.90;;;;;;2077658;28;20034;-78
2023/12/31 04:35:28;;;;;;;19.52;11.13;;;4.30;99.90;;;;;;2079975;28;20022;-77
2023/12/31 04:36:29;;;;;;;20.80;10.77;;;4.20;99.90;;;;;;2080370;28;20024;-77
2023/12/31 04:37:30;;;;;;;17.42;10.68;;;4.20;99.90;;;;;;2076228;28;20110;-78
2023/12/31 04:38:32;;;;;;;22.35;11.15;;;4.30;99.90;;;;;;2076450;28;20046;-77
2023/12/31 04:39:33;;;;;;;19.00;10.45;;;4.20;99.90;;;;;;2084263;28;20041;-77
2023/12/31 04:40:35;;;;;;;18.25;10.27;;;4.20;99.90;;;;;;2085923;28;20075;-77
2023/12/31 04:41:37;;;;;;;19.17;11.18;;;4.20;99.90;;;;;;2079230;28;20037;-78
2023/12/31 04:42:38;;;;;;;20.80;11.13;;;4.20;99.90;;;;;;2077123;28;20044;-77
2023/12/31 04:43:38;;;;;;;20.80;10.90;;;4.10;99.90;;;;;;2088476;28;20124;-77
2023/12/31 04:44:40;;;;;;;22.30;11.07;;;4.10;99.90;;;;;;2084499;28;20037;-77
2023/12/31 04:45:41;;;;;;;18.73;11.23;;;4.10;99.90;;;;;;2076029;28;20766;-78
2023/12/31 04:46:42;;;;;;;19.42;10.75;;;4.10;99.90;;;;;;2078440;28;20061;-78
2023/12/31 04:47:42;;;;;;;20.20;10.55;;;4.00;99.90;;;;;;2080229;28;20025;-77
2023/12/31 04:48:43;;;;;;;21.60;11.07;;;4.00;99.90;;;;;;2078532;28;20030;-77
2023/12/31 04:49:43;;;;;;;18.35;11.38;;;4.00;99.90;;;;;;2088367;28;20052;-76
2023/12/31 04:50:44;;;;;;;18.48;11.05;;;4.00;99.90;;;;;;2077871;28;20057;-78
2023/12/31 04:51:44;;;;;;;19.60;11.20;;;4.00;99.90;;;;;;2069973;28;20044;-78
2023/12/31 04:52:46;;;;;;;19.27;11.75;;;4.00;99.90;;;;;;2072018;28;20025;-78
2023/12/31 04:53:46;;;;;;;17.80;11.20;;;4.00;99.90;;;;;;2070547;28;20069;-77
2023/12/31 04:54:47;;;;;;;18.75;11.20;;;3.90;99.90;;;;;;2077954;28;20049;-78
2023/12/31 04:55:47;;;;;;;17.73;10.90;;;4.00;99.90;;;;;;2076990;28;20602;-78
2023/12/31 04:56:49;;;;;;;17.67;10.90;;;4.00;99.90;;;;;;2068010;28;20033;-78
2023/12/31 04:57:49;;;;;;;18.10;10.82;;;4.00;99.90;;;;;;2067866;28;20052;-77
2023/12/31 04:58:52;;;;;;;19.20;11.63;;;3.90;99.90;;;;;;2076185;28;20018;-79
2023/12/31 04:59:53;;;;;;;20.67;11.40;;;3.90;99.90;;;;;;2060063;28;20064;-78
2023/12/31 05:00:53;;;;;;;21.08;11.57;;;4.00;99.90;;;;;;2067337;28;20026;-78
2023/12/31 05:01:55;;;;;;;21.70;11.90;;;4.00;99.90;;;;;;2071237;28;20025;-78
2023/12/31 05:02:55;;;;;;;17.13;9.68;;;4.00;99.90;;;;;;2068525;28;20053;-78
2023/12/31 05:03:56;;;;;;;21.42;11.00;;;4.10;99.90;;;;;;2076039;28;20207;-78
2023/12/31 05:04:57;;;;;;;18.60;10.50;;;4.50;99.90;;;;;;2063676;28;20034;-78
2023/12/31 05:05:58;;;;;;;17.23;10.85;;;4.50;99.90;;;;;;2065880;28;20018;-77
2023/12/31 05:06:59;;;;;;;48.53;30.10;;;4.60;99.90;;;;;;2076040;28;20024;-77
2023/12/31 05:07:59;;;;;;;36.00;21.05;;;4.50;99.90;;;;;;2076202;28;20028;-77
2023/12/31 05:09:00;;;;;;;18.60;11.30;;;4.50;99.90;;;;;;2084218;28;20063;-77
2023/12/31 05:10:02;;;;;;;17.05;11.18;;;4.40;99.90;;;;;;2087535;28;20784;-77
2023/12/31 05:11:02;;;;;;;19.63;11.05;;;4.30;99.90;;;;;;2077118;28;20036;-77
2023/12/31 05:12:03;;;;;;;17.52;10.90;;;4.20;99.90;;;;;;2079302;28;20517;-77
2023/12/31 05:13:04;;;;;;;17.85;11.07;;;4.10;99.90;;;;;;2063667;28;20108;-77
2023/12/31 05:14:05;;;;;;;19.45;11.10;;;4.10;99.90;;;;;;2068135;28;20101;-77
2023/12/31 05:15:06;;;;;;;20.10;11.75;;;4.10;99.90;;;;;;2080709;28;20045;-78